sensor_id;sensor_type;location;lat;lon;timestamp;temperature;humidity
37222;DHT22;23119;51.842;-2.230;2023-06-14T00:00:15;19.50;93.30
37222;DHT22;23119;51.842;-2.230;2023-06-14T00:02:46;19.40;93.50
37222;DHT22;23119;51.842;-2.230;2023-06-14T00:05:15;19.30;93.70
37222;DHT22;23119;51.842;-2.230;2023-06-14T00:07:43;19.20;94.00
37222;DHT22;23119;51.842;-2.230;2023-06-14T00:10:11;19.10;94.30
37222;DHT22;23119;51.842;-2.230;2023-06-14T00:12:39;19.00;94.90
37222;DHT22;23119;51.842;-2.230;2023-06-14T00:15:06;18.90;95.20
37222;DHT22;23119;51.842;-2.230;2023-06-14T00:17:32;18.80;95.80
37222;DHT22;23119;51.842;-2.230;2023-06-14T00:19:59;18.70;96.00
37222;DHT22;23119;51.842;-2.230;2023-06-14T00:22:27;18.70;96.30
37222;DHT22;23119;51.842;-2.230;2023-06-14T00:24:54;18.60;96.60
37222;DHT22;23119;51.842;-2.230;2023-06-14T00:27:19;18.50;96.80
37222;DHT22;23119;51.842;-2.230;2023-06-14T00:29:50;18.40;97.10
37222;DHT22;23119;51.842;-2.230;2023-06-14T00:32:18;18.30;97.80
37222;DHT22;23119;51.842;-2.230;2023-06-14T00:34:47;18.30;97.70
37222;DHT22;23119;51.842;-2.230;2023-06-14T00:37:15;18.20;98.00
37222;DHT22;23119;51.842;-2.230;2023-06-14T00:39:41;18.10;98.40
37222;DHT22;23119;51.842;-2.230;2023-06-14T00:42:06;18.00;98.80
37222;DHT22;23119;51.842;-2.230;2023-06-14T00:44:53;18.00;99.20
37222;DHT22;23119;51.842;-2.230;2023-06-14T00:47:19;17.90;99.90
37222;DHT22;23119;51.842;-2.230;2023-06-14T00:49:48;17.80;99.90
37222;DHT22;23119;51.842;-2.230;2023-06-14T00:52:15;17.70;99.90
37222;DHT22;23119;51.842;-2.230;2023-06-14T00:54:43;17.70;99.90
37222;DHT22;23119;51.842;-2.230;2023-06-14T00:57:10;17.70;99.90
37222;DHT22;23119;51.842;-2.230;2023-06-14T00:59:59;17.70;99.90
37222;DHT22;23119;51.842;-2.230;2023-06-14T01:02:25;17.60;99.90
37222;DHT22;23119;51.842;-2.230;2023-06-14T01:04:51;17.60;99.90
37222;DHT22;23119;51.842;-2.230;2023-06-14T01:07:40;17.60;99.90
37222;DHT22;23119;51.842;-2.230;2023-06-14T01:13:13;17.50;99.90
37222;DHT22;23119;51.842;-2.230;2023-06-14T01:15:44;17.50;99.90
37222;DHT22;23119;51.842;-2.230;2023-06-14T01:18:12;17.50;99.90
37222;DHT22;23119;51.842;-2.230;2023-06-14T01:20:43;17.40;99.90
37222;DHT22;23119;51.842;-2.230;2023-06-14T01:23:11;17.40;99.90
37222;DHT22;23119;51.842;-2.230;2023-06-14T01:25:39;17.30;99.90
37222;DHT22;23119;51.842;-2.230;2023-06-14T01:28:09;17.30;99.90
37222;DHT22;23119;51.842;-2.230;2023-06-14T01:30:41;17.20;99.90
37222;DHT22;23119;51.842;-2.230;2023-06-14T01:33:20;17.20;99.90
37222;DHT22;23119;51.842;-2.230;2023-06-14T01:35:53;17.10;99.90
37222;DHT22;23119;51.842;-2.230;2023-06-14T01:38:23;17.00;99.90
37222;DHT22;23119;51.842;-2.230;2023-06-14T01:40:50;16.90;99.90
37222;DHT22;23119;51.842;-2.230;2023-06-14T01:43:21;16.90;99.90
37222;DHT22;23119;51.842;-2.230;2023-06-14T01:45:51;16.90;99.90
37222;DHT22;23119;51.842;-2.230;2023-06-14T01:48:17;16.80;99.90
37222;DHT22;23119;51.842;-2.230;2023-06-14T01:50:46;16.80;99.90
37222;DHT22;23119;51.842;-2.230;2023-06-14T01:53:13;16.80;99.90
37222;DHT22;23119;51.842;-2.230;2023-06-14T01:55:38;16.70;99.90
37222;DHT22;23119;51.842;-2.230;2023-06-14T01:58:09;16.70;99.90
37222;DHT22;23119;51.842;-2.230;2023-06-14T02:00:35;16.60;99.90
37222;DHT22;23119;51.842;-2.230;2023-06-14T02:03:03;16.50;99.90
37222;DHT22;23119;51.842;-2.230;2023-06-14T02:05:34;16.50;99.90
37222;DHT22;23119;51.842;-2.230;2023-06-14T02:08:00;16.40;99.90
37222;DHT22;23119;51.842;-2.230;2023-06-14T02:10:28;16.30;99.90
37222;DHT22;23119;51.842;-2.230;2023-06-14T02:12:54;16.20;99.90
37222;DHT22;23119;51.842;-2.230;2023-06-14T02:15:20;16.10;99.90
37222;DHT22;23119;51.842;-2.230;2023-06-14T02:17:47;16.00;99.90
37222;DHT22;23119;51.842;-2.230;2023-06-14T02:20:14;16.00;99.90
37222;DHT22;23119;51.842;-2.230;2023-06-14T02:22:44;15.90;99.90
37222;DHT22;23119;51.842;-2.230;2023-06-14T02:25:10;15.80;99.90
37222;DHT22;23119;51.842;-2.230;2023-06-14T02:27:35;15.80;99.90
37222;DHT22;23119;51.842;-2.230;2023-06-14T02:30:04;15.80;99.90
37222;DHT22;23119;51.842;-2.230;2023-06-14T02:32:32;15.70;99.90
37222;DHT22;23119;51.842;-2.230;2023-06-14T02:35:01;15.60;99.80
37222;DHT22;23119;51.842;-2.230;2023-06-14T02:37:26;15.60;99.90
37222;DHT22;23119;51.842;-2.230;2023-06-14T02:39:52;15.50;99.60
37222;DHT22;23119;51.842;-2.230;2023-06-14T02:42:18;15.40;99.60
37222;DHT22;23119;51.842;-2.230;2023-06-14T02:44:43;15.40;99.80
37222;DHT22;23119;51.842;-2.230;2023-06-14T02:47:10;15.30;99.60
37222;DHT22;23119;51.842;-2.230;2023-06-14T02:49:36;15.30;99.50
37222;DHT22;23119;51.842;-2.230;2023-06-14T02:52:01;15.20;99.50
37222;DHT22;23119;51.842;-2.230;2023-06-14T02:54:28;15.10;99.80
37222;DHT22;23119;51.842;-2.230;2023-06-14T02:56:53;15.00;99.50
37222;DHT22;23119;51.842;-2.230;2023-06-14T02:59:19;14.90;99.50
37222;DHT22;23119;51.842;-2.230;2023-06-14T03:01:46;14.80;99.60
37222;DHT22;23119;51.842;-2.230;2023-06-14T03:04:12;14.80;99.90
37222;DHT22;23119;51.842;-2.230;2023-06-14T03:06:38;14.80;99.90
37222;DHT22;23119;51.842;-2.230;2023-06-14T03:09:05;14.60;99.90
37222;DHT22;23119;51.842;-2.230;2023-06-14T03:11:31;14.50;99.90
37222;DHT22;23119;51.842;-2.230;2023-06-14T03:13:57;14.40;99.90
37222;DHT22;23119;51.842;-2.230;2023-06-14T03:16:23;14.30;99.90
37222;DHT22;23119;51.842;-2.230;2023-06-14T03:18:52;14.30;99.90
37222;DHT22;23119;51.842;-2.230;2023-06-14T03:21:19;14.20;99.90
37222;DHT22;23119;51.842;-2.230;2023-06-14T03:23:48;14.10;99.90
37222;DHT22;23119;51.842;-2.230;2023-06-14T03:26:18;14.00;99.90
37222;DHT22;23119;51.842;-2.230;2023-06-14T03:28:48;13.90;99.90
37222;DHT22;23119;51.842;-2.230;2023-06-14T03:31:16;13.80;99.90
37222;DHT22;23119;51.842;-2.230;2023-06-14T03:33:42;13.70;99.90
37222;DHT22;23119;51.842;-2.230;2023-06-14T03:36:08;13.60;99.90
37222;DHT22;23119;51.842;-2.230;2023-06-14T03:38:44;13.50;99.90
37222;DHT22;23119;51.842;-2.230;2023-06-14T03:41:13;13.40;99.90
37222;DHT22;23119;51.842;-2.230;2023-06-14T03:43:38;13.40;99.90
37222;DHT22;23119;51.842;-2.230;2023-06-14T03:46:04;13.30;99.90
37222;DHT22;23119;51.842;-2.230;2023-06-14T03:48:32;13.20;99.90
37222;DHT22;23119;51.842;-2.230;2023-06-14T03:50:58;13.20;99.90
37222;DHT22;23119;51.842;-2.230;2023-06-14T03:53:24;13.10;99.90
37222;DHT22;23119;51.842;-2.230;2023-06-14T03:55:50;13.10;99.90
37222;DHT22;23119;51.842;-2.230;2023-06-14T03:58:18;13.10;99.90
37222;DHT22;23119;51.842;-2.230;2023-06-14T04:00:44;13.10;99.90
37222;DHT22;23119;51.842;-2.230;2023-06-14T04:03:10;13.10;99.90
37222;DHT22;23119;51.842;-2.230;2023-06-14T04:05:39;13.10;99.90
37222;DHT22;23119;51.842;-2.230;2023-06-14T04:08:08;13.10;99.90
37222;DHT22;23119;51.842;-2.230;2023-06-14T04:10:35;13.10;99.90
37222;DHT22;23119;51.842;-2.230;2023-06-14T04:13:01;13.20;99.90
37222;DHT22;23119;51.842;-2.230;2023-06-14T04:15:26;13.30;99.90
37222;DHT22;23119;51.842;-2.230;2023-06-14T04:17:54;13.40;99.90
37222;DHT22;23119;51.842;-2.230;2023-06-14T04:20:25;14.00;99.90
37222;DHT22;23119;51.842;-2.230;2023-06-14T04:22:51;14.80;99.90
37222;DHT22;23119;51.842;-2.230;2023-06-14T04:25:18;15.70;99.90
37222;DHT22;23119;51.842;-2.230;2023-06-14T04:27:44;16.50;99.90
37222;DHT22;23119;51.842;-2.230;2023-06-14T04:30:10;17.40;99.60
37222;DHT22;23119;51.842;-2.230;2023-06-14T04:32:36;18.10;97.60
37222;DHT22;23119;51.842;-2.230;2023-06-14T04:35:12;18.70;96.70
37222;DHT22;23119;51.842;-2.230;2023-06-14T04:37:37;19.60;94.80
37222;DHT22;23119;51.842;-2.230;2023-06-14T04:40:08;20.20;93.90
37222;DHT22;23119;51.842;-2.230;2023-06-14T04:42:34;20.70;92.40
37222;DHT22;23119;51.842;-2.230;2023-06-14T04:45:02;20.80;92.00
37222;DHT22;23119;51.842;-2.230;2023-06-14T04:47:28;21.10;91.10
37222;DHT22;23119;51.842;-2.230;2023-06-14T04:49:56;21.40;90.20
37222;DHT22;23119;51.842;-2.230;2023-06-14T04:52:24;22.20;90.40
37222;DHT22;23119;51.842;-2.230;2023-06-14T04:54:52;22.90;90.00
37222;DHT22;23119;51.842;-2.230;2023-06-14T04:57:19;23.40;88.40
37222;DHT22;23119;51.842;-2.230;2023-06-14T04:59:47;24.40;86.10
37222;DHT22;23119;51.842;-2.230;2023-06-14T05:02:13;24.70;84.80
37222;DHT22;23119;51.842;-2.230;2023-06-14T05:04:39;25.20;82.10
37222;DHT22;23119;51.842;-2.230;2023-06-14T05:07:07;25.60;82.70
37222;DHT22;23119;51.842;-2.230;2023-06-14T05:09:41;26.10;81.90
37222;DHT22;23119;51.842;-2.230;2023-06-14T05:12:07;26.90;79.80
37222;DHT22;23119;51.842;-2.230;2023-06-14T05:14:33;27.40;78.60
37222;DHT22;23119;51.842;-2.230;2023-06-14T05:17:00;27.60;78.20
37222;DHT22;23119;51.842;-2.230;2023-06-14T05:19:25;28.10;77.30
37222;DHT22;23119;51.842;-2.230;2023-06-14T05:21:52;28.60;76.30
37222;DHT22;23119;51.842;-2.230;2023-06-14T05:24:18;28.60;75.60
37222;DHT22;23119;51.842;-2.230;2023-06-14T05:26:48;29.40;73.70
37222;DHT22;23119;51.842;-2.230;2023-06-14T05:29:14;29.60;72.10
37222;DHT22;23119;51.842;-2.230;2023-06-14T05:31:40;30.20;71.80
37222;DHT22;23119;51.842;-2.230;2023-06-14T05:34:11;30.60;72.40
37222;DHT22;23119;51.842;-2.230;2023-06-14T05:36:37;31.10;71.50
37222;DHT22;23119;51.842;-2.230;2023-06-14T05:39:02;31.20;70.50
37222;DHT22;23119;51.842;-2.230;2023-06-14T05:41:29;31.70;69.80
37222;DHT22;23119;51.842;-2.230;2023-06-14T05:43:56;31.60;68.80
37222;DHT22;23119;51.842;-2.230;2023-06-14T05:46:22;31.80;69.10
37222;DHT22;23119;51.842;-2.230;2023-06-14T05:48:52;31.60;68.40
37222;DHT22;23119;51.842;-2.230;2023-06-14T05:51:19;31.70;67.90
37222;DHT22;23119;51.842;-2.230;2023-06-14T05:53:48;31.50;67.90
37222;DHT22;23119;51.842;-2.230;2023-06-14T05:56:17;32.10;67.70
37222;DHT22;23119;51.842;-2.230;2023-06-14T05:58:46;32.50;67.90
37222;DHT22;23119;51.842;-2.230;2023-06-14T06:01:12;32.90;67.40
37222;DHT22;23119;51.842;-2.230;2023-06-14T06:03:44;33.50;66.80
37222;DHT22;23119;51.842;-2.230;2023-06-14T06:06:13;33.00;65.60
37222;DHT22;23119;51.842;-2.230;2023-06-14T06:08:39;33.80;65.60
37222;DHT22;23119;51.842;-2.230;2023-06-14T06:11:08;33.90;65.40
37222;DHT22;23119;51.842;-2.230;2023-06-14T06:13:44;34.40;65.20
37222;DHT22;23119;51.842;-2.230;2023-06-14T06:16:12;34.50;64.30
37222;DHT22;23119;51.842;-2.230;2023-06-14T06:18:37;34.40;63.60
37222;DHT22;23119;51.842;-2.230;2023-06-14T06:21:04;35.10;63.80
37222;DHT22;23119;51.842;-2.230;2023-06-14T06:23:30;35.90;63.50
37222;DHT22;23119;51.842;-2.230;2023-06-14T06:25:55;36.00;62.90
37222;DHT22;23119;51.842;-2.230;2023-06-14T06:28:23;36.20;62.00
37222;DHT22;23119;51.842;-2.230;2023-06-14T06:30:49;36.30;62.10
37222;DHT22;23119;51.842;-2.230;2023-06-14T06:33:16;37.10;62.00
37222;DHT22;23119;51.842;-2.230;2023-06-14T06:35:41;37.50;60.00
37222;DHT22;23119;51.842;-2.230;2023-06-14T06:38:10;37.60;60.30
37222;DHT22;23119;51.842;-2.230;2023-06-14T06:40:36;37.40;60.10
37222;DHT22;23119;51.842;-2.230;2023-06-14T06:43:02;36.70;59.80
37222;DHT22;23119;51.842;-2.230;2023-06-14T06:45:31;36.70;59.50
37222;DHT22;23119;51.842;-2.230;2023-06-14T06:47:59;36.00;59.80
37222;DHT22;23119;51.842;-2.230;2023-06-14T06:50:25;36.70;60.20
37222;DHT22;23119;51.842;-2.230;2023-06-14T06:52:53;36.90;60.40
37222;DHT22;23119;51.842;-2.230;2023-06-14T06:55:27;37.90;59.90
37222;DHT22;23119;51.842;-2.230;2023-06-14T06:57:55;38.00;58.90
37222;DHT22;23119;51.842;-2.230;2023-06-14T07:00:22;38.00;58.90
37222;DHT22;23119;51.842;-2.230;2023-06-14T07:02:51;38.50;59.10
37222;DHT22;23119;51.842;-2.230;2023-06-14T07:05:17;38.30;58.40
37222;DHT22;23119;51.842;-2.230;2023-06-14T07:07:46;39.30;58.80
37222;DHT22;23119;51.842;-2.230;2023-06-14T07:10:11;39.80;58.20
37222;DHT22;23119;51.842;-2.230;2023-06-14T07:12:37;40.10;57.70
37222;DHT22;23119;51.842;-2.230;2023-06-14T07:15:07;39.80;57.20
37222;DHT22;23119;51.842;-2.230;2023-06-14T07:17:34;39.80;57.30
37222;DHT22;23119;51.842;-2.230;2023-06-14T07:20:04;38.80;57.40
37222;DHT22;23119;51.842;-2.230;2023-06-14T07:22:38;38.90;57.50
37222;DHT22;23119;51.842;-2.230;2023-06-14T07:25:07;38.50;57.50
37222;DHT22;23119;51.842;-2.230;2023-06-14T07:27:39;38.00;57.80
37222;DHT22;23119;51.842;-2.230;2023-06-14T07:30:08;38.50;58.00
37222;DHT22;23119;51.842;-2.230;2023-06-14T07:32:33;38.00;57.60
37222;DHT22;23119;51.842;-2.230;2023-06-14T07:34:59;37.40;58.10
37222;DHT22;23119;51.842;-2.230;2023-06-14T07:37:25;38.10;58.60
37222;DHT22;23119;51.842;-2.230;2023-06-14T07:39:51;38.50;58.40
37222;DHT22;23119;51.842;-2.230;2023-06-14T07:42:22;38.50;58.20
37222;DHT22;23119;51.842;-2.230;2023-06-14T07:44:52;38.70;58.50
37222;DHT22;23119;51.842;-2.230;2023-06-14T07:47:21;39.00;58.40
37222;DHT22;23119;51.842;-2.230;2023-06-14T07:49:50;39.20;58.30
37222;DHT22;23119;51.842;-2.230;2023-06-14T07:52:19;39.20;58.40
37222;DHT22;23119;51.842;-2.230;2023-06-14T07:54:47;38.80;58.30
37222;DHT22;23119;51.842;-2.230;2023-06-14T07:57:15;38.20;58.70
37222;DHT22;23119;51.842;-2.230;2023-06-14T07:59:44;37.70;58.90
37222;DHT22;23119;51.842;-2.230;2023-06-14T08:02:09;37.60;59.30
37222;DHT22;23119;51.842;-2.230;2023-06-14T08:04:35;37.40;59.70
37222;DHT22;23119;51.842;-2.230;2023-06-14T08:07:01;37.10;59.60
37222;DHT22;23119;51.842;-2.230;2023-06-14T08:09:29;36.40;60.50
37222;DHT22;23119;51.842;-2.230;2023-06-14T08:11:58;36.20;61.30
37222;DHT22;23119;51.842;-2.230;2023-06-14T08:14:24;35.40;61.80
37222;DHT22;23119;51.842;-2.230;2023-06-14T08:16:50;34.90;62.80
37222;DHT22;23119;51.842;-2.230;2023-06-14T08:19:15;34.40;63.40
37222;DHT22;23119;51.842;-2.230;2023-06-14T08:21:44;33.40;64.50
37222;DHT22;23119;51.842;-2.230;2023-06-14T08:24:11;33.10;65.60
37222;DHT22;23119;51.842;-2.230;2023-06-14T08:26:40;32.90;66.00
37222;DHT22;23119;51.842;-2.230;2023-06-14T08:29:09;32.80;66.70
37222;DHT22;23119;51.842;-2.230;2023-06-14T08:31:35;32.40;66.90
37222;DHT22;23119;51.842;-2.230;2023-06-14T08:34:03;31.70;67.20
37222;DHT22;23119;51.842;-2.230;2023-06-14T08:36:35;31.00;68.10
37222;DHT22;23119;51.842;-2.230;2023-06-14T08:39:01;30.40;70.00
37222;DHT22;23119;51.842;-2.230;2023-06-14T08:41:35;30.00;70.00
37222;DHT22;23119;51.842;-2.230;2023-06-14T08:44:01;29.40;70.90
37222;DHT22;23119;51.842;-2.230;2023-06-14T08:46:34;28.40;71.80
37222;DHT22;23119;51.842;-2.230;2023-06-14T08:49:01;27.80;73.60
37222;DHT22;23119;51.842;-2.230;2023-06-14T08:51:31;27.50;74.30
37222;DHT22;23119;51.842;-2.230;2023-06-14T08:54:03;27.00;75.60
37222;DHT22;23119;51.842;-2.230;2023-06-14T08:56:30;27.00;76.50
37222;DHT22;23119;51.842;-2.230;2023-06-14T08:58:57;27.20;76.50
37222;DHT22;23119;51.842;-2.230;2023-06-14T09:01:36;27.50;76.30
37222;DHT22;23119;51.842;-2.230;2023-06-14T09:04:11;27.90;75.80
37222;DHT22;23119;51.842;-2.230;2023-06-14T09:06:36;27.50;74.00
37222;DHT22;23119;51.842;-2.230;2023-06-14T09:09:02;26.80;75.00
37222;DHT22;23119;51.842;-2.230;2023-06-14T09:11:30;26.60;75.50
37222;DHT22;23119;51.842;-2.230;2023-06-14T09:13:56;26.10;76.20
37222;DHT22;23119;51.842;-2.230;2023-06-14T09:16:21;26.00;76.60
37222;DHT22;23119;51.842;-2.230;2023-06-14T09:18:54;25.80;77.30
37222;DHT22;23119;51.842;-2.230;2023-06-14T09:21:25;26.00;78.40
37222;DHT22;23119;51.842;-2.230;2023-06-14T09:23:56;25.90;79.10
37222;DHT22;23119;51.842;-2.230;2023-06-14T09:26:21;26.20;79.30
37222;DHT22;23119;51.842;-2.230;2023-06-14T09:28:54;26.10;78.20
37222;DHT22;23119;51.842;-2.230;2023-06-14T09:31:21;25.80;77.80
37222;DHT22;23119;51.842;-2.230;2023-06-14T09:33:51;25.60;78.50
37222;DHT22;23119;51.842;-2.230;2023-06-14T09:36:21;25.60;77.90
37222;DHT22;23119;51.842;-2.230;2023-06-14T09:38:55;25.70;78.90
37222;DHT22;23119;51.842;-2.230;2023-06-14T09:41:31;25.60;79.10
37222;DHT22;23119;51.842;-2.230;2023-06-14T09:43:58;25.80;79.50
37222;DHT22;23119;51.842;-2.230;2023-06-14T09:46:29;25.90;79.00
37222;DHT22;23119;51.842;-2.230;2023-06-14T09:48:56;26.00;78.60
37222;DHT22;23119;51.842;-2.230;2023-06-14T09:51:23;25.80;75.70
37222;DHT22;23119;51.842;-2.230;2023-06-14T09:53:50;25.60;76.60
37222;DHT22;23119;51.842;-2.230;2023-06-14T09:56:28;25.40;77.70
37222;DHT22;23119;51.842;-2.230;2023-06-14T09:58:58;25.70;78.10
37222;DHT22;23119;51.842;-2.230;2023-06-14T10:01:31;25.90;77.90
37222;DHT22;23119;51.842;-2.230;2023-06-14T10:04:22;25.90;77.00
37222;DHT22;23119;51.842;-2.230;2023-06-14T10:06:51;26.20;76.70
37222;DHT22;23119;51.842;-2.230;2023-06-14T10:09:18;26.50;75.20
37222;DHT22;23119;51.842;-2.230;2023-06-14T10:11:47;26.60;76.00
37222;DHT22;23119;51.842;-2.230;2023-06-14T10:14:16;26.90;76.00
37222;DHT22;23119;51.842;-2.230;2023-06-14T10:16:56;27.00;75.90
37222;DHT22;23119;51.842;-2.230;2023-06-14T10:19:54;27.00;73.80
37222;DHT22;23119;51.842;-2.230;2023-06-14T10:22:33;26.80;74.20
37222;DHT22;23119;51.842;-2.230;2023-06-14T10:25:04;27.10;75.50
37222;DHT22;23119;51.842;-2.230;2023-06-14T10:27:44;27.40;75.20
37222;DHT22;23119;51.842;-2.230;2023-06-14T10:30:14;27.40;75.10
37222;DHT22;23119;51.842;-2.230;2023-06-14T10:33:03;27.30;74.20
37222;DHT22;23119;51.842;-2.230;2023-06-14T10:35:35;27.30;74.20
37222;DHT22;23119;51.842;-2.230;2023-06-14T10:38:11;27.60;74.20
37222;DHT22;23119;51.842;-2.230;2023-06-14T10:40:38;27.70;74.50
37222;DHT22;23119;51.842;-2.230;2023-06-14T10:43:37;27.90;74.40
37222;DHT22;23119;51.842;-2.230;2023-06-14T10:46:18;28.10;75.30
37222;DHT22;23119;51.842;-2.230;2023-06-14T10:48:48;28.30;75.20
37222;DHT22;23119;51.842;-2.230;2023-06-14T10:51:20;28.40;74.40
37222;DHT22;23119;51.842;-2.230;2023-06-14T10:53:56;28.60;73.60
37222;DHT22;23119;51.842;-2.230;2023-06-14T10:58:54;28.50;74.50
37222;DHT22;23119;51.842;-2.230;2023-06-14T11:01:34;28.60;74.60
37222;DHT22;23119;51.842;-2.230;2023-06-14T11:04:11;28.70;75.20
37222;DHT22;23119;51.842;-2.230;2023-06-14T11:06:51;28.80;74.60
37222;DHT22;23119;51.842;-2.230;2023-06-14T11:09:21;28.60;74.50
37222;DHT22;23119;51.842;-2.230;2023-06-14T11:11:58;28.50;74.50
37222;DHT22;23119;51.842;-2.230;2023-06-14T11:14:25;28.30;74.80
37222;DHT22;23119;51.842;-2.230;2023-06-14T11:16:51;28.20;74.20
37222;DHT22;23119;51.842;-2.230;2023-06-14T11:19:17;28.40;74.10
37222;DHT22;23119;51.842;-2.230;2023-06-14T11:21:47;28.40;74.50
37222;DHT22;23119;51.842;-2.230;2023-06-14T11:24:13;28.20;74.10
37222;DHT22;23119;51.842;-2.230;2023-06-14T11:26:40;28.00;74.10
37222;DHT22;23119;51.842;-2.230;2023-06-14T11:29:16;28.00;74.90
37222;DHT22;23119;51.842;-2.230;2023-06-14T11:32:14;28.10;72.90
37222;DHT22;23119;51.842;-2.230;2023-06-14T11:34:39;28.20;74.70
37222;DHT22;23119;51.842;-2.230;2023-06-14T11:37:10;28.50;74.20
37222;DHT22;23119;51.842;-2.230;2023-06-14T11:39:36;28.70;74.60
37222;DHT22;23119;51.842;-2.230;2023-06-14T11:42:01;28.70;74.40
37222;DHT22;23119;51.842;-2.230;2023-06-14T11:44:28;28.70;74.00
37222;DHT22;23119;51.842;-2.230;2023-06-14T11:46:55;28.60;74.20
37222;DHT22;23119;51.842;-2.230;2023-06-14T11:49:23;28.80;74.70
37222;DHT22;23119;51.842;-2.230;2023-06-14T11:51:56;28.90;74.60
37222;DHT22;23119;51.842;-2.230;2023-06-14T11:54:21;29.00;74.20
37222;DHT22;23119;51.842;-2.230;2023-06-14T11:56:49;29.30;73.90
37222;DHT22;23119;51.842;-2.230;2023-06-14T11:59:18;29.60;73.70
37222;DHT22;23119;51.842;-2.230;2023-06-14T12:01:45;29.70;72.90
37222;DHT22;23119;51.842;-2.230;2023-06-14T12:04:12;29.70;72.70
37222;DHT22;23119;51.842;-2.230;2023-06-14T12:06:40;29.70;72.40
37222;DHT22;23119;51.842;-2.230;2023-06-14T12:09:07;29.50;72.90
37222;DHT22;23119;51.842;-2.230;2023-06-14T12:11:38;29.30;73.40
37222;DHT22;23119;51.842;-2.230;2023-06-14T12:14:08;29.40;74.00
37222;DHT22;23119;51.842;-2.230;2023-06-14T12:16:36;29.40;73.70
37222;DHT22;23119;51.842;-2.230;2023-06-14T12:19:32;29.20;73.80
37222;DHT22;23119;51.842;-2.230;2023-06-14T12:21:59;29.10;74.20
37222;DHT22;23119;51.842;-2.230;2023-06-14T12:24:33;29.00;74.30
37222;DHT22;23119;51.842;-2.230;2023-06-14T12:27:01;28.90;74.40
37222;DHT22;23119;51.842;-2.230;2023-06-14T12:29:40;28.80;73.10
37222;DHT22;23119;51.842;-2.230;2023-06-14T12:32:06;29.00;74.00
37222;DHT22;23119;51.842;-2.230;2023-06-14T12:34:32;29.30;73.90
37222;DHT22;23119;51.842;-2.230;2023-06-14T12:36:57;29.50;74.00
37222;DHT22;23119;51.842;-2.230;2023-06-14T12:39:29;29.50;74.10
37222;DHT22;23119;51.842;-2.230;2023-06-14T12:41:57;29.50;73.10
37222;DHT22;23119;51.842;-2.230;2023-06-14T12:44:25;29.60;73.80
37222;DHT22;23119;51.842;-2.230;2023-06-14T12:46:51;29.70;74.10
37222;DHT22;23119;51.842;-2.230;2023-06-14T12:49:18;29.90;73.40
37222;DHT22;23119;51.842;-2.230;2023-06-14T12:51:46;29.90;73.80
37222;DHT22;23119;51.842;-2.230;2023-06-14T12:54:12;29.70;73.50
37222;DHT22;23119;51.842;-2.230;2023-06-14T12:56:42;29.60;73.40
37222;DHT22;23119;51.842;-2.230;2023-06-14T12:59:10;29.70;73.80
37222;DHT22;23119;51.842;-2.230;2023-06-14T13:01:38;29.70;74.00
37222;DHT22;23119;51.842;-2.230;2023-06-14T13:04:09;29.70;73.80
37222;DHT22;23119;51.842;-2.230;2023-06-14T13:06:35;29.70;73.70
37222;DHT22;23119;51.842;-2.230;2023-06-14T13:09:01;29.80;74.30
37222;DHT22;23119;51.842;-2.230;2023-06-14T13:11:30;29.80;74.10
37222;DHT22;23119;51.842;-2.230;2023-06-14T13:13:55;30.10;74.60
37222;DHT22;23119;51.842;-2.230;2023-06-14T13:16:27;30.20;74.50
37222;DHT22;23119;51.842;-2.230;2023-06-14T13:19:00;30.00;73.40
37222;DHT22;23119;51.842;-2.230;2023-06-14T13:21:26;30.10;74.00
37222;DHT22;23119;51.842;-2.230;2023-06-14T13:23:54;30.10;74.00
37222;DHT22;23119;51.842;-2.230;2023-06-14T13:26:23;30.10;73.40
37222;DHT22;23119;51.842;-2.230;2023-06-14T13:28:48;30.00;73.70
37222;DHT22;23119;51.842;-2.230;2023-06-14T13:31:14;30.10;74.10
37222;DHT22;23119;51.842;-2.230;2023-06-14T13:33:49;30.20;74.30
37222;DHT22;23119;51.842;-2.230;2023-06-14T13:36:17;30.30;73.70
37222;DHT22;23119;51.842;-2.230;2023-06-14T13:38:43;30.40;74.30
37222;DHT22;23119;51.842;-2.230;2023-06-14T13:41:10;30.40;73.70
37222;DHT22;23119;51.842;-2.230;2023-06-14T13:43:36;30.30;73.40
37222;DHT22;23119;51.842;-2.230;2023-06-14T13:46:02;30.30;73.60
37222;DHT22;23119;51.842;-2.230;2023-06-14T13:48:33;30.20;73.00
37222;DHT22;23119;51.842;-2.230;2023-06-14T13:51:01;30.10;73.40
37222;DHT22;23119;51.842;-2.230;2023-06-14T13:53:29;30.30;74.00
37222;DHT22;23119;51.842;-2.230;2023-06-14T13:55:59;30.40;73.80
37222;DHT22;23119;51.842;-2.230;2023-06-14T13:58:25;30.50;74.40
37222;DHT22;23119;51.842;-2.230;2023-06-14T14:00:51;30.60;73.80
37222;DHT22;23119;51.842;-2.230;2023-06-14T14:03:18;30.30;73.70
37222;DHT22;23119;51.842;-2.230;2023-06-14T14:05:45;30.40;74.20
37222;DHT22;23119;51.842;-2.230;2023-06-14T14:08:15;30.30;74.10
37222;DHT22;23119;51.842;-2.230;2023-06-14T14:10:43;30.30;74.30
37222;DHT22;23119;51.842;-2.230;2023-06-14T14:13:12;30.40;75.00
37222;DHT22;23119;51.842;-2.230;2023-06-14T14:15:38;30.10;74.20
37222;DHT22;23119;51.842;-2.230;2023-06-14T14:18:07;30.10;74.50
37222;DHT22;23119;51.842;-2.230;2023-06-14T14:20:34;30.00;74.60
37222;DHT22;23119;51.842;-2.230;2023-06-14T14:23:00;30.10;74.90
37222;DHT22;23119;51.842;-2.230;2023-06-14T14:25:27;30.20;75.20
37222;DHT22;23119;51.842;-2.230;2023-06-14T14:27:53;30.10;75.10
37222;DHT22;23119;51.842;-2.230;2023-06-14T14:30:22;30.20;75.30
37222;DHT22;23119;51.842;-2.230;2023-06-14T14:32:53;30.30;75.30
37222;DHT22;23119;51.842;-2.230;2023-06-14T14:35:19;30.50;75.80
37222;DHT22;23119;51.842;-2.230;2023-06-14T14:37:44;30.60;75.90
37222;DHT22;23119;51.842;-2.230;2023-06-14T14:40:11;30.60;74.80
37222;DHT22;23119;51.842;-2.230;2023-06-14T14:42:40;30.50;74.70
37222;DHT22;23119;51.842;-2.230;2023-06-14T14:45:08;30.40;74.30
37222;DHT22;23119;51.842;-2.230;2023-06-14T14:47:34;30.40;74.60
37222;DHT22;23119;51.842;-2.230;2023-06-14T14:50:00;30.20;74.70
37222;DHT22;23119;51.842;-2.230;2023-06-14T14:52:30;30.00;74.70
37222;DHT22;23119;51.842;-2.230;2023-06-14T14:54:58;30.00;75.20
37222;DHT22;23119;51.842;-2.230;2023-06-14T14:57:27;30.10;75.10
37222;DHT22;23119;51.842;-2.230;2023-06-14T15:00:00;30.00;75.30
37222;DHT22;23119;51.842;-2.230;2023-06-14T15:02:26;29.90;76.20
37222;DHT22;23119;51.842;-2.230;2023-06-14T15:04:54;29.70;75.30
37222;DHT22;23119;51.842;-2.230;2023-06-14T15:07:22;29.70;74.40
37222;DHT22;23119;51.842;-2.230;2023-06-14T15:09:53;29.70;74.70
37222;DHT22;23119;51.842;-2.230;2023-06-14T15:12:19;29.80;75.20
37222;DHT22;23119;51.842;-2.230;2023-06-14T15:14:51;29.90;75.50
37222;DHT22;23119;51.842;-2.230;2023-06-14T15:17:20;29.90;74.60
37222;DHT22;23119;51.842;-2.230;2023-06-14T15:19:47;29.70;74.60
37222;DHT22;23119;51.842;-2.230;2023-06-14T15:22:14;29.70;75.10
37222;DHT22;23119;51.842;-2.230;2023-06-14T15:24:42;29.70;74.80
37222;DHT22;23119;51.842;-2.230;2023-06-14T15:27:16;29.70;75.10
37222;DHT22;23119;51.842;-2.230;2023-06-14T15:29:48;29.80;75.40